createdAt,value
2023-03-20T00:02:47.092Z,10.20
2023-03-20T00:07:53.414Z,10.10
2023-03-20T00:12:58.209Z,10.10
2023-03-20T00:18:02.224Z,10.00
2023-03-20T00:23:07.720Z,9.90
2023-03-20T00:28:40.777Z,9.80
2023-03-20T00:33:45.526Z,9.70
2023-03-20T00:38:51.434Z,9.60
2023-03-20T00:44:01.248Z,9.60
2023-03-20T00:49:05.440Z,9.50
2023-03-20T00:54:15.846Z,9.50
2023-03-20T00:59:25.010Z,9.50
2023-03-20T01:04:37.098Z,9.50
2023-03-20T01:09:42.898Z,9.40
2023-03-20T01:14:47.848Z,9.40
2023-03-20T01:19:52.212Z,9.30
2023-03-20T01:24:57.631Z,9.20
2023-03-20T01:30:01.676Z,9.10
2023-03-20T01:35:07.568Z,9.00
2023-03-20T01:40:33.636Z,9.00
2023-03-20T01:45:39.530Z,8.90
2023-03-20T01:50:43.847Z,9.00
2023-03-20T01:55:57.641Z,8.90
2023-03-20T02:01:06.392Z,8.90
2023-03-20T02:06:11.214Z,8.90
2023-03-20T02:11:38.629Z,8.90
2023-03-20T02:16:42.888Z,8.80
2023-03-20T02:22:40.095Z,8.80
2023-03-20T02:28:34.569Z,8.80
2023-03-20T02:34:17.453Z,8.70
2023-03-20T02:39:48.315Z,8.70
2023-03-20T02:45:05.325Z,8.60
2023-03-20T02:50:19.033Z,8.60
2023-03-20T02:55:34.695Z,8.60
2023-03-20T03:00:49.113Z,8.60
2023-03-20T03:05:59.233Z,8.60
2023-03-20T03:11:09.453Z,8.60
2023-03-20T03:16:19.047Z,8.50
2023-03-20T03:21:23.830Z,8.50
2023-03-20T03:26:35.669Z,8.50
2023-03-20T03:31:39.981Z,8.50
2023-03-20T03:36:51.690Z,8.50
2023-03-20T03:42:06.558Z,8.40
2023-03-20T03:47:14.722Z,8.40
2023-03-20T03:52:23.937Z,8.40
2023-03-20T03:57:35.489Z,8.40
2023-03-20T04:02:42.709Z,8.30
2023-03-20T04:07:47.657Z,8.30
2023-03-20T04:12:53.078Z,8.20
2023-03-20T04:17:57.764Z,8.10
2023-03-20T04:23:02.085Z,8.10
2023-03-20T04:28:08.446Z,8.10
2023-03-20T04:33:27.758Z,8.10
2023-03-20T04:38:40.634Z,8.10
2023-03-20T04:43:46.215Z,8.10
2023-03-20T04:48:50.956Z,8.10
2023-03-20T04:53:56.222Z,8.10
2023-03-20T04:59:01.791Z,8.10
2023-03-20T05:04:06.966Z,8.10
2023-03-20T05:09:11.596Z,8.10
2023-03-20T05:14:17.164Z,8.10
2023-03-20T05:19:43.203Z,8.10
2023-03-20T05:24:47.258Z,8.10
2023-03-20T05:30:13.336Z,8.00
2023-03-20T05:35:46.981Z,8.00
2023-03-20T05:41:09.547Z,8.00
2023-03-20T05:46:37.476Z,8.10
2023-03-20T05:51:52.229Z,8.00
2023-03-20T05:57:17.644Z,8.10
2023-03-20T06:02:36.882Z,8.10
2023-03-20T06:07:51.584Z,8.00
2023-03-20T06:12:56.992Z,8.10
2023-03-20T06:18:04.972Z,8.10
2023-03-20T06:23:09.701Z,8.10
2023-03-20T06:28:13.947Z,8.10
2023-03-20T06:33:19.494Z,8.20
2023-03-20T06:38:35.011Z,8.20
2023-03-20T06:43:45.275Z,8.30
2023-03-20T06:48:52.252Z,8.30
2023-03-20T06:53:56.582Z,8.30
2023-03-20T06:59:03.947Z,8.30
2023-03-20T07:04:09.572Z,8.30
2023-03-20T07:09:22.156Z,8.30
2023-03-20T07:14:26.343Z,8.30
2023-03-20T07:19:43.647Z,8.40
2023-03-20T07:24:47.688Z,8.50
2023-03-20T07:29:53.015Z,8.50
2023-03-20T07:34:59.146Z,8.60
2023-03-20T07:40:07.052Z,8.60
2023-03-20T07:45:18.507Z,8.60
2023-03-20T07:50:23.952Z,8.70
2023-03-20T07:55:28.003Z,8.70
2023-03-20T08:00:32.391Z,8.70
2023-03-20T08:05:38.457Z,8.70
2023-03-20T08:10:43.000Z,8.70
2023-03-20T08:15:48.708Z,8.70
2023-03-20T08:20:54.079Z,8.80
2023-03-20T08:25:58.158Z,8.90
2023-03-20T08:31:02.266Z,8.90
2023-03-20T08:36:09.257Z,9.00
2023-03-20T08:41:13.192Z,9.00
2023-03-20T08:46:18.478Z,9.10
2023-03-20T08:51:23.890Z,9.00
2023-03-20T08:56:27.983Z,9.10
2023-03-20T09:01:47.826Z,9.00
2023-03-20T09:06:55.001Z,8.90
2023-03-20T09:11:59.640Z,8.80
2023-03-20T09:17:03.621Z,8.70
2023-03-20T09:22:09.155Z,8.70
2023-03-20T09:27:13.957Z,8.70
2023-03-20T09:32:18.057Z,8.70
2023-03-20T09:37:23.515Z,8.70
2023-03-20T09:42:43.186Z,8.70
2023-03-20T09:47:55.949Z,8.80
2023-03-20T09:53:07.314Z,8.80
2023-03-20T09:58:16.476Z,8.80
2023-03-20T10:03:26.344Z,8.90
2023-03-20T10:08:36.380Z,8.90
2023-03-20T10:13:56.000Z,9.00
2023-03-20T10:19:09.382Z,9.10
2023-03-20T10:24:21.249Z,9.10
2023-03-20T10:29:34.956Z,9.10
2023-03-20T10:34:59.160Z,9.20
2023-03-20T10:40:29.078Z,9.40
2023-03-20T10:45:39.592Z,9.50
2023-03-20T10:50:47.551Z,9.60
2023-03-20T10:55:58.468Z,9.60
2023-03-20T11:01:03.549Z,9.60
2023-03-20T11:06:17.430Z,9.60
2023-03-20T11:11:28.621Z,9.60
2023-03-20T11:16:36.800Z,9.60
2023-03-20T11:21:49.506Z,9.60
2023-03-20T11:26:56.613Z,9.60
2023-03-20T11:32:06.055Z,9.70
2023-03-20T11:37:25.896Z,9.70
2023-03-20T11:42:34.093Z,9.80
2023-03-20T11:47:38.442Z,9.90
2023-03-20T11:52:42.531Z,10.00
2023-03-20T11:57:48.774Z,10.20
2023-03-20T12:02:53.327Z,10.40
2023-03-20T12:08:02.984Z,10.50
2023-03-20T12:13:16.170Z,10.70
2023-03-20T12:18:30.292Z,10.90
2023-03-20T12:23:40.244Z,10.80
2023-03-20T12:28:53.393Z,10.80
2023-03-20T12:34:05.985Z,10.80
2023-03-20T12:39:16.029Z,10.70
2023-03-20T12:44:41.047Z,10.70
2023-03-20T12:49:56.005Z,10.70
2023-03-20T12:55:17.730Z,10.70
2023-03-20T13:00:32.204Z,10.70
2023-03-20T13:05:46.371Z,10.70
2023-03-20T13:10:58.655Z,10.70
2023-03-20T13:16:17.966Z,10.90
2023-03-20T13:21:29.072Z,10.90
2023-03-20T13:26:39.457Z,11.00
2023-03-20T13:31:57.277Z,11.00
2023-03-20T13:37:23.487Z,11.00
2023-03-20T13:42:32.586Z,11.10
2023-03-20T13:47:39.402Z,11.10
2023-03-20T13:52:50.740Z,11.10
2023-03-20T13:58:22.752Z,11.00
2023-03-20T14:03:31.605Z,10.90
2023-03-20T14:08:37.532Z,10.90
2023-03-20T14:13:47.393Z,10.80
2023-03-20T14:19:09.128Z,10.70
2023-03-20T14:24:17.235Z,10.70
2023-03-20T14:29:39.267Z,10.70
2023-03-20T14:34:50.399Z,10.70
2023-03-20T14:40:01.888Z,10.70
2023-03-20T14:45:37.681Z,10.70
2023-03-20T14:51:01.035Z,10.70
2023-03-20T14:56:12.254Z,10.70
2023-03-20T15:01:20.592Z,10.70
2023-03-20T15:06:29.818Z,10.70
2023-03-20T15:11:34.898Z,10.60
2023-03-20T15:16:39.663Z,10.70
2023-03-20T15:21:48.197Z,10.70
2023-03-20T15:26:57.436Z,10.70
2023-03-20T15:32:13.804Z,10.80
2023-03-20T15:37:24.830Z,10.80
2023-03-20T15:42:28.978Z,10.90
2023-03-20T15:47:33.203Z,10.90
2023-03-20T15:52:43.507Z,10.90
2023-03-20T15:57:50.377Z,10.90
2023-03-20T16:02:54.969Z,10.90
2023-03-20T16:08:13.846Z,10.90
2023-03-20T16:13:18.770Z,11.00
2023-03-20T16:18:23.567Z,11.00
2023-03-20T16:23:37.245Z,11.00
2023-03-20T16:28:41.293Z,10.90
2023-03-20T16:33:46.356Z,10.90
2023-03-20T16:39:00.449Z,11.00
2023-03-20T16:44:09.413Z,11.00
2023-03-20T16:50:04.554Z,11.00
2023-03-20T16:55:18.139Z,11.00
2023-03-20T17:00:28.448Z,11.00
2023-03-20T17:05:46.273Z,11.00
2023-03-20T17:10:58.326Z,11.00
2023-03-20T17:16:02.526Z,11.00
2023-03-20T17:21:07.541Z,11.00
2023-03-20T17:26:14.438Z,11.00
2023-03-20T17:31:19.315Z,11.00
2023-03-20T17:36:27.150Z,11.00
2023-03-20T17:41:32.592Z,11.00
2023-03-20T17:46:50.031Z,11.00
2023-03-20T17:52:00.390Z,11.00
2023-03-20T17:57:05.821Z,11.00
2023-03-20T18:02:11.236Z,11.00
2023-03-20T18:07:16.757Z,11.00
2023-03-20T18:12:22.142Z,11.00
2023-03-20T18:17:27.861Z,11.00
2023-03-20T18:22:31.988Z,11.00
2023-03-20T18:27:37.437Z,11.00
2023-03-20T18:32:41.460Z,11.00
2023-03-20T18:37:45.757Z,11.10
2023-03-20T18:42:51.345Z,11.00
2023-03-20T18:47:55.940Z,11.00
2023-03-20T18:53:01.356Z,11.10
2023-03-20T18:58:07.044Z,11.10
2023-03-20T19:03:13.113Z,11.10
2023-03-20T19:08:17.534Z,11.10
2023-03-20T19:13:24.784Z,11.10
2023-03-20T19:18:29.076Z,11.10
2023-03-20T19:23:33.062Z,11.00
2023-03-20T19:28:41.159Z,11.00
2023-03-20T19:33:46.009Z,11.00
2023-03-20T19:38:50.244Z,11.00
2023-03-20T19:43:56.455Z,10.90
2023-03-20T19:49:00.654Z,10.90
2023-03-20T19:54:04.728Z,10.90
2023-03-20T19:59:10.135Z,10.90
2023-03-20T20:04:14.198Z,10.90
2023-03-20T20:09:18.412Z,10.90
2023-03-20T20:14:24.184Z,10.90
2023-03-20T20:19:28.543Z,10.90
2023-03-20T20:24:32.823Z,10.90
2023-03-20T20:29:38.262Z,11.00
2023-03-20T20:40:09.285Z,11.00
2023-03-20T20:45:15.448Z,11.00
2023-03-20T20:50:22.222Z,11.00
2023-03-20T20:55:26.701Z,11.00
2023-03-20T21:00:48.357Z,11.00
2023-03-20T21:05:54.057Z,11.00
2023-03-20T21:10:58.066Z,11.00
2023-03-20T21:16:03.811Z,11.00
2023-03-20T21:21:09.288Z,11.00
2023-03-20T21:26:13.369Z,11.00
2023-03-20T21:31:29.559Z,11.00
2023-03-20T21:36:35.338Z,11.00
2023-03-20T21:41:41.265Z,11.00
2023-03-20T21:47:22.600Z,11.00
2023-03-20T21:52:59.865Z,11.00
2023-03-20T22:03:10.864Z,11.00
2023-03-20T22:09:14.896Z,11.00
2023-03-20T22:25:08.486Z,10.90
2023-03-20T22:41:37.964Z,11.00
2023-03-20T22:46:39.990Z,10.90
2023-03-20T22:51:43.988Z,10.80
2023-03-20T22:56:56.645Z,10.80
2023-03-20T23:02:00.782Z,10.80
2023-03-20T23:07:06.284Z,10.80
2023-03-20T23:12:10.289Z,10.80
2023-03-20T23:17:14.634Z,10.70
2023-03-20T23:22:20.405Z,10.70
2023-03-20T23:27:24.387Z,10.70
2023-03-20T23:32:28.507Z,10.60
2023-03-20T23:37:33.969Z,10.70
2023-03-20T23:42:37.945Z,10.70
2023-03-20T23:53:19.449Z,10.60
2023-03-20T23:58:26.138Z,10.60
